Huvudsida
METAR-TAF:

METAR-TAF

Flygplatser :

Šiauliai internationella flygplats

Šiauliai, Litauen

latitud: 55-53-38N, longitud: 023-23-42E, höjd: 135 m

Aktuellt väderrapport

Denna rapport gjordes för 31 minuter sedan, klockan 07:20 UTC
Vind 4 kt från syd
Temperatur 11°C
Fuktighet 82%
Tryck 1020 hPa
Sikt: 9000 m

METAR: EYSA 180720Z 17004KT 9000 NSC 11/08 Q1020 BLU NOSIG

Tid: 10:51 (07:51 UTC)

Väderprognos

Denna rapport gjordes för 2 timmar och 44 minuter sedan, klockan 05:07 UTC
Prognos gäller från 18 kl. 06 UTC till 18 kl. 15 UTC
Vind 6 kt från syd
Sikt: 9000 m

TAF: EYSA 180507Z 1806/1815 18006KT 9000 NSC

Aktuella väderrapporter och prognoser från 4000 flygplatser (METAR- och TAF-rapporter).

De tillgängliga stationerna syns som gula och röda prickar på kartan.

För musen över prickarna för att se namnen på stationerna.

Klicka sedan för att få väderrapporter och prognoser.

För att ändra kartan: Klicka på de gröna knapparna med ett svart kors på för att zooma in; den gröna knappen med ett streck på för att zooma ut; eller på de gröna pilarna för angränsande kartor.


METAR-TAF: